Time;durP1;ratioP1;P1;durP2;ratioP2;P2;SDS_P1;SDS_P2;PMS_P1;PMS_P2;Temp;Humidity;BMP_temperature;BMP_pressure;BME280_temperature;BME280_humidity;BME280_pressure;Samples;Min_cycle;Max_cycle;Signal;HPM_P1;HPM_P2
2023/03/30 00:01:22;;;;;;;17.00;7.90;;;;;;;4.75;66.63;99483.17;106521;1286;70075;-67
2023/03/30 00:04:11;;;;;;;21.80;8.40;;;;;;;4.75;66.52;99482.67;106407;1286;57461;-68
2023/03/30 00:06:58;;;;;;;16.40;7.50;;;;;;;4.75;66.42;99479.30;105640;1286;1002869;-66
2023/03/30 00:09:45;;;;;;;14.90;7.30;;;;;;;4.77;66.46;99476.06;106436;1286;71792;-65
2023/03/30 00:12:31;;;;;;;17.00;7.20;;;;;;;4.77;66.92;99475.53;106357;1289;68003;-67
2023/03/30 00:15:22;;;;;;;17.70;8.00;;;;;;;4.77;66.98;99473.54;106416;1286;72839;-67
2023/03/30 00:18:09;;;;;;;18.30;7.60;;;;;;;4.79;66.86;99479.61;106217;1286;57451;-66
2023/03/30 00:20:57;;;;;;;15.30;6.70;;;;;;;4.81;66.95;99481.77;106484;1286;58287;-67
2023/03/30 00:23:47;;;;;;;16.80;7.30;;;;;;;4.82;67.00;99481.52;105876;1288;1002903;-67
2023/03/30 00:26:34;;;;;;;18.10;8.00;;;;;;;4.84;66.93;99476.69;106414;1286;67722;-66
2023/03/30 00:29:20;;;;;;;15.90;7.90;;;;;;;4.85;67.14;99474.88;106485;1286;72538;-67
2023/03/30 00:32:08;;;;;;;17.00;7.50;;;;;;;4.85;67.16;99477.14;106258;1286;57384;-67
2023/03/30 00:34:55;;;;;;;17.10;8.20;;;;;;;4.86;67.32;99469.14;106425;1288;60208;-65
2023/03/30 00:37:44;;;;;;;17.90;8.20;;;;;;;4.86;67.33;99467.93;106373;1286;73224;-69
2023/03/30 00:40:33;;;;;;;19.10;8.40;;;;;;;4.86;67.70;99464.58;105607;1286;1002296;-69
2023/03/30 00:43:21;;;;;;;19.00;7.20;;;;;;;4.85;67.82;99464.44;106654;1286;70285;-68
2023/03/30 00:46:09;;;;;;;16.50;6.60;;;;;;;4.86;68.03;99461.80;106388;1286;57865;-69
2023/03/30 00:49:04;;;;;;;16.60;7.50;;;;;;;4.86;67.91;99460.52;106288;1289;58814;-70
2023/03/30 00:51:51;;;;;;;17.20;7.30;;;;;;;4.86;68.02;99459.33;106134;1288;72522;-68
2023/03/30 00:54:39;;;;;;;15.70;7.60;;;;;;;4.85;68.53;99454.65;106358;1288;66466;-70
2023/03/30 00:57:27;;;;;;;16.80;7.60;;;;;;;4.84;68.74;99455.55;106115;1288;71881;-67
2023/03/30 01:00:14;;;;;;;18.30;7.50;;;;;;;4.84;68.68;99454.85;105553;1289;1002401;-67
2023/03/30 01:03:08;;;;;;;16.40;6.90;;;;;;;4.84;68.87;99452.75;106231;1289;60407;-66
2023/03/30 01:05:58;;;;;;;15.50;6.60;;;;;;;4.86;68.72;99457.19;105512;1288;1002275;-66
2023/03/30 01:08:45;;;;;;;15.50;6.40;;;;;;;4.87;69.03;99459.06;106326;1288;67890;-66
2023/03/30 01:11:31;;;;;;;16.10;7.10;;;;;;;4.87;69.27;99457.63;106249;1288;71502;-65
2023/03/30 01:14:18;;;;;;;16.50;7.10;;;;;;;4.87;69.27;99456.42;106276;1289;57440;-65
2023/03/30 01:17:31;;;;;;;13.70;6.20;;;;;;;4.88;69.44;99443.56;106272;1289;59318;-64
2023/03/30 01:20:48;;;;;;;15.30;6.60;;;;;;;4.89;69.38;99439.63;106436;1286;72075;-70
2023/03/30 01:24:03;;;;;;;18.10;8.50;;;;;;;4.89;69.76;99438.54;105715;1286;1002204;-66
2023/03/30 01:27:12;;;;;;;15.10;6.50;;;;;;;4.89;69.77;99439.46;106604;1286;73941;-68
2023/03/30 01:30:26;;;;;;;15.80;6.30;;;;;;;4.86;69.89;99440.68;106466;1286;57404;-69
2023/03/30 01:33:39;;;;;;;13.80;6.80;;;;;;;4.87;70.00;99440.61;106330;1286;58920;-68
2023/03/30 01:36:53;;;;;;;13.80;6.80;;;;;;;4.87;70.08;99439.41;106569;1286;71863;-67
2023/03/30 01:40:13;;;;;;;15.50;6.50;;;;;;;4.85;70.40;99436.70;106555;1286;67895;-67
2023/03/30 01:43:19;;;;;;;14.30;6.20;;;;;;;4.83;70.43;99428.91;106610;1286;71625;-70
2023/03/30 01:46:17;;;;;;;15.10;6.10;;;;;;;4.81;70.73;99425.34;106398;1286;57507;-68
2023/03/30 01:49:31;;;;;;;14.30;6.20;;;;;;;4.77;70.87;99426.13;106414;1287;61489;-69
2023/03/30 01:52:37;;;;;;;17.40;7.30;;;;;;;4.80;70.87;99424.90;105889;1286;1002963;-67
2023/03/30 01:55:40;;;;;;;14.30;6.90;;;;;;;4.81;71.12;99423.77;106624;1286;68095;-68
2023/03/30 01:58:35;;;;;;;14.50;6.40;;;;;;;4.82;71.13;99420.54;106403;1286;72661;-64
2023/03/30 02:01:25;;;;;;;12.80;6.10;;;;;;;4.82;71.36;99418.80;106494;1286;57413;-67
2023/03/30 02:04:13;;;;;;;14.80;6.70;;;;;;;4.81;71.43;99416.20;106290;1286;61453;-66
2023/03/30 02:07:09;;;;;;;13.90;6.10;;;;;;;4.78;71.86;99418.31;106592;1286;71946;-64
2023/03/30 02:10:01;;;;;;;18.50;7.50;;;;;;;4.75;71.85;99416.02;106390;1286;65532;-64
2023/03/30 02:12:50;;;;;;;14.90;6.60;;;;;;;4.73;72.14;99416.17;106506;1286;72511;-66
2023/03/30 02:15:50;;;;;;;15.30;7.10;;;;;;;4.70;72.18;99417.27;106527;1286;57487;-67
2023/03/30 02:18:37;;;;;;;14.50;6.40;;;;;;;4.69;72.10;99420.14;106512;1286;58571;-64
2023/03/30 02:21:24;;;;;;;12.80;5.90;;;;;;;4.67;72.22;99413.23;106462;1286;72989;-67
2023/03/30 02:24:20;;;;;;;13.90;6.10;;;;;;;4.65;72.46;99416.52;106426;1286;68863;-65
2023/03/30 02:27:06;;;;;;;13.80;6.10;;;;;;;4.64;72.38;99420.62;106335;1287;71398;-68
2023/03/30 02:29:55;;;;;;;14.70;6.40;;;;;;;4.64;72.61;99423.29;106354;1286;57629;-69
2023/03/30 02:32:48;;;;;;;16.00;7.20;;;;;;;4.64;72.51;99425.55;106452;1286;60247;-68
2023/03/30 02:35:56;;;;;;;19.20;6.90;;;;;;;4.65;72.60;99424.62;106498;1286;71691;-65
2023/03/30 02:38:53;;;;;;;14.20;7.10;;;;;;;4.67;72.78;99424.14;106471;1286;66672;-65
2023/03/30 02:42:09;;;;;;;12.40;6.70;;;;;;;4.67;72.58;99420.06;106481;1286;73835;-66
2023/03/30 02:45:19;;;;;;;11.30;4.80;;;;;;;4.70;72.63;99422.69;106432;1289;57437;-68
2023/03/30 02:48:14;;;;;;;17.10;4.90;;;;;;;4.68;72.92;99414.93;106518;1288;59210;-65
2023/03/30 02:51:29;;;;;;;13.30;5.70;;;;;;;4.64;73.28;99413.97;106441;1286;73062;-66
2023/03/30 02:54:57;;;;;;;13.10;5.70;;;;;;;4.62;72.97;99414.98;106446;1286;66504;-68
2023/03/30 02:58:44;;;;;;;15.90;5.60;;;;;;;4.58;73.32;99410.25;106489;1286;72704;-69
2023/03/30 03:01:50;;;;;;;12.90;6.60;;;;;;;4.55;73.40;99407.83;106491;1288;57332;-66
2023/03/30 03:04:42;;;;;;;15.20;6.30;;;;;;;4.52;73.46;99408.52;106584;1286;59125;-67
2023/03/30 03:07:44;;;;;;;13.10;6.00;;;;;;;4.49;73.46;99399.26;105749;1286;1002575;-68
2023/03/30 03:10:35;;;;;;;16.90;6.70;;;;;;;4.47;73.95;99396.39;106523;1286;66750;-67
2023/03/30 03:13:23;;;;;;;15.00;7.00;;;;;;;4.45;73.93;99398.27;106479;1286;72849;-65
2023/03/30 03:16:10;;;;;;;16.60;6.80;;;;;;;4.46;74.00;99398.60;106351;1286;59704;-64
2023/03/30 03:18:58;;;;;;;16.00;7.30;;;;;;;4.47;73.90;99397.29;106434;1286;58902;-69
2023/03/30 03:21:45;;;;;;;16.10;7.30;;;;;;;4.47;74.06;99393.75;106457;1286;71847;-69
2023/03/30 03:24:37;;;;;;;16.50;7.90;;;;;;;4.50;73.98;99384.28;106429;1288;67780;-69
2023/03/30 03:27:59;;;;;;;14.60;6.70;;;;;;;4.53;74.05;99376.34;106371;1286;72810;-69
2023/03/30 03:30:53;;;;;;;14.90;7.90;;;;;;;4.53;74.06;99368.60;106406;1289;57580;-65
2023/03/30 03:33:43;;;;;;;17.30;7.80;;;;;;;4.55;74.09;99369.02;106374;1286;58956;-65
2023/03/30 03:36:38;;;;;;;20.40;8.80;;;;;;;4.55;74.07;99366.17;106382;1286;71993;-68
2023/03/30 03:39:24;;;;;;;24.20;9.50;;;;;;;4.53;74.08;99360.67;106358;1286;67986;-69
2023/03/30 03:42:11;;;;;;;24.20;10.20;;;;;;;4.52;74.08;99358.11;106280;1286;72942;-69
2023/03/30 03:45:10;;;;;;;27.10;9.80;;;;;;;4.50;74.19;99356.31;106414;1286;57792;-69
2023/03/30 03:48:07;;;;;;;24.20;9.50;;;;;;;4.49;74.51;99356.21;106416;1286;59278;-70
2023/03/30 03:51:01;;;;;;;25.80;9.60;;;;;;;4.47;74.54;99353.01;106346;1288;74156;-72
2023/03/30 03:53:52;;;;;;;21.20;8.30;;;;;;;4.45;74.75;99352.63;106503;1286;67860;-70
2023/03/30 03:56:39;;;;;;;18.20;7.70;;;;;;;4.42;74.95;99355.09;106321;1287;72912;-68
2023/03/30 03:59:26;;;;;;;19.70;8.20;;;;;;;4.37;75.48;99353.59;105587;1286;1003070;-67
2023/03/30 04:02:13;;;;;;;19.70;9.00;;;;;;;4.34;75.92;99356.64;106244;1286;60434;-67
2023/03/30 04:05:00;;;;;;;14.70;7.60;;;;;;;4.30;76.07;99351.98;106398;1286;72355;-68
2023/03/30 04:07:47;;;;;;;17.00;7.60;;;;;;;4.28;76.32;99351.23;106415;1286;68025;-67
2023/03/30 04:10:34;;;;;;;14.80;7.70;;;;;;;4.29;76.32;99350.09;106352;1288;71358;-67
2023/03/30 04:13:30;;;;;;;18.20;8.00;;;;;;;4.31;76.06;99349.48;106474;1286;57683;-69
2023/03/30 04:16:40;;;;;;;16.10;7.20;;;;;;;4.33;76.47;99345.42;106318;1288;60197;-67
2023/03/30 04:19:40;;;;;;;19.20;7.60;;;;;;;4.37;76.34;99343.28;106440;1286;73403;-67
2023/03/30 04:22:40;;;;;;;13.90;6.90;;;;;;;4.38;76.14;99339.19;106409;1289;67846;-67
2023/03/30 04:25:39;;;;;;;14.20;7.60;;;;;;;4.41;76.14;99342.48;106403;1286;73119;-69
2023/03/30 04:28:34;;;;;;;16.40;7.80;;;;;;;4.43;76.28;99343.41;106562;1286;57416;-70
2023/03/30 04:31:55;;;;;;;12.90;6.50;;;;;;;4.46;76.09;99338.85;106442;1286;59077;-69
2023/03/30 04:34:53;;;;;;;14.80;7.40;;;;;;;4.49;76.18;99338.30;106430;1287;72993;-71
2023/03/30 04:37:41;;;;;;;15.10;7.40;;;;;;;4.51;76.00;99340.10;106394;1289;67942;-69
2023/03/30 04:40:49;;;;;;;16.10;8.60;;;;;;;4.51;76.43;99339.03;106444;1288;72786;-71
2023/03/30 04:43:52;;;;;;;17.70;8.80;;;;;;;4.51;76.56;99336.08;106409;1286;57579;-66
2023/03/30 04:47:05;;;;;;;16.60;8.10;;;;;;;4.47;76.80;99331.70;106057;1290;59037;-69
2023/03/30 04:50:21;;;;;;;18.90;9.40;;;;;;;4.38;76.86;99318.98;105999;1290;74025;-70
2023/03/30 04:53:27;;;;;;;18.50;9.00;;;;;;;4.45;76.96;99324.35;106236;1291;66560;-71
2023/03/30 04:56:32;;;;;;;18.50;7.70;;;;;;;4.44;77.04;99319.12;105736;1294;72758;-70
2023/03/30 04:59:43;;;;;;;24.70;9.50;;;;;;;4.42;77.07;99319.23;105822;1293;57538;-69
2023/03/30 05:03:05;;;;;;;21.20;9.40;;;;;;;4.42;77.13;99314.30;105756;1294;60358;-71
2023/03/30 05:06:26;;;;;;;16.00;8.90;;;;;;;4.44;77.45;99314.05;105690;1293;72980;-72
2023/03/30 05:09:36;;;;;;;19.20;9.10;;;;;;;4.45;77.37;99310.13;105841;1293;67730;-68
2023/03/30 05:12:41;;;;;;;15.10;8.10;;;;;;;4.47;77.37;99311.58;105769;1294;71505;-69
2023/03/30 05:15:33;;;;;;;17.00;21.30;;;;;;;4.46;77.48;99304.05;105814;1294;57526;-68
2023/03/30 05:18:30;;;;;;;18.80;8.50;;;;;;;4.51;77.24;99308.50;106122;1291;60272;-70
2023/03/30 05:21:35;;;;;;;19.10;9.00;;;;;;;4.55;77.28;99308.23;106190;1291;72841;-67
2023/03/30 05:24:25;;;;;;;14.00;7.50;;;;;;;4.60;77.28;99310.85;106091;1291;66041;-73
2023/03/30 05:27:12;;;;;;;18.10;8.70;;;;;;;4.71;77.03;99310.15;105541;1287;1002154;-71
2023/03/30 05:30:07;;;;;;;20.60;9.70;;;;;;;4.82;76.98;99312.11;106367;1286;59718;-71
2023/03/30 05:33:23;;;;;;;15.90;8.50;;;;;;;4.91;76.76;99317.27;106458;1286;60387;-72
2023/03/30 05:36:28;;;;;;;19.60;9.70;;;;;;;5.07;76.40;99312.91;106305;1287;71551;-71
2023/03/30 05:39:33;;;;;;;17.20;7.90;;;;;;;5.20;76.04;99312.36;106420;1286;66591;-69
2023/03/30 05:42:28;;;;;;;17.70;8.00;;;;;;;5.27;75.74;99312.44;106374;1286;73604;-70
2023/03/30 05:45:33;;;;;;;18.50;9.10;;;;;;;5.31;75.76;99312.53;106440;1286;57383;-70
2023/03/30 05:48:23;;;;;;;15.90;8.60;;;;;;;5.38;75.52;99311.02;106430;1288;59391;-68
2023/03/30 05:51:42;;;;;;;17.50;8.80;;;;;;;5.46;75.50;99306.41;106353;1286;73392;-71
2023/03/30 05:54:42;;;;;;;20.80;10.10;;;;;;;5.58;75.36;99301.01;106363;1286;68901;-68
2023/03/30 05:57:45;;;;;;;18.00;7.60;;;;;;;5.76;74.87;99299.39;106367;1286;72718;-71
2023/03/30 06:01:04;;;;;;;15.30;8.40;;;;;;;5.97;74.10;99296.25;106269;1286;58207;-71
2023/03/30 06:03:53;;;;;;;17.40;8.60;;;;;;;6.09;73.68;99294.84;106419;1286;60446;-71
2023/03/30 06:06:41;;;;;;;16.50;9.00;;;;;;;6.24;73.35;99289.92;106393;1286;72968;-68
2023/03/30 06:09:28;;;;;;;16.80;8.80;;;;;;;6.50;72.85;99291.60;106332;1286;69186;-73
2023/03/30 06:12:15;;;;;;;17.30;8.30;;;;;;;6.71;71.93;99290.95;106245;1286;73771;-69
2023/03/30 06:15:01;;;;;;;16.80;9.10;;;;;;;6.91;70.81;99291.15;106334;1291;57489;-68
2023/03/30 06:18:12;;;;;;;18.20;8.70;;;;;;;7.01;70.06;99291.34;106438;1286;59970;-71
2023/03/30 06:21:07;;;;;;;15.70;8.80;;;;;;;7.02;70.22;99286.88;106416;1286;71777;-73
2023/03/30 06:24:26;;;;;;;19.00;8.70;;;;;;;6.96;69.96;99290.66;106215;1288;66503;-69
2023/03/30 06:27:13;;;;;;;16.60;9.00;;;;;;;6.81;70.18;99289.27;106272;1286;72528;-69
2023/03/30 06:30:01;;;;;;;14.60;7.80;;;;;;;6.70;70.84;99286.76;106546;1286;57339;-68
2023/03/30 06:32:49;;;;;;;16.60;8.80;;;;;;;6.56;71.34;99281.23;106392;1289;59316;-70
2023/03/30 06:35:55;;;;;;;17.70;8.50;;;;;;;6.55;71.88;99283.95;106356;1286;71734;-69
2023/03/30 06:38:42;;;;;;;21.70;9.20;;;;;;;6.60;72.02;99286.38;106462;1289;66831;-71
2023/03/30 06:41:29;;;;;;;23.50;9.60;;;;;;;6.64;71.82;99284.02;106317;1286;71597;-70
2023/03/30 06:44:16;;;;;;;17.80;8.60;;;;;;;6.72;71.84;99285.94;106316;1289;59828;-69
2023/03/30 06:47:06;;;;;;;16.70;9.10;;;;;;;6.76;71.49;99281.74;106332;1286;61423;-71
2023/03/30 06:49:53;;;;;;;18.70;8.60;;;;;;;6.85;71.27;99285.79;106463;1286;73189;-71
2023/03/30 06:53:00;;;;;;;18.40;8.40;;;;;;;6.84;70.78;99280.42;106508;1286;66661;-69
2023/03/30 06:55:57;;;;;;;15.60;8.40;;;;;;;6.83;71.02;99281.38;106399;1286;71421;-68
2023/03/30 06:58:45;;;;;;;26.20;8.80;;;;;;;6.86;70.82;99284.49;106376;1286;57322;-70
2023/03/30 07:01:32;;;;;;;20.20;8.00;;;;;;;6.93;70.95;99280.46;106373;1286;60089;-71
2023/03/30 07:04:19;;;;;;;18.30;9.30;;;;;;;6.97;70.88;99281.00;106542;1286;72253;-71
2023/03/30 07:07:29;;;;;;;14.70;7.50;;;;;;;7.06;70.54;99283.70;104924;1286;1002799;-70
2023/03/30 07:10:16;;;;;;;19.70;9.70;;;;;;;7.05;70.21;99283.27;106393;1286;73702;-73
2023/03/30 07:13:03;;;;;;;15.20;8.00;;;;;;;7.09;70.21;99282.09;106267;1286;57876;-70
2023/03/30 07:15:51;;;;;;;18.00;8.90;;;;;;;7.12;70.01;99276.40;106367;1286;59244;-71
2023/03/30 07:18:38;;;;;;;21.70;9.90;;;;;;;7.26;69.90;99278.19;106352;1286;71486;-71
2023/03/30 07:21:24;;;;;;;17.20;8.60;;;;;;;7.40;69.51;99274.63;106366;1286;66921;-73
2023/03/30 07:24:12;;;;;;;17.70;9.10;;;;;;;7.55;69.51;99273.65;106355;1286;72923;-69
2023/03/30 07:26:59;;;;;;;19.80;8.90;;;;;;;7.69;68.90;99272.22;106349;1286;57530;-72
2023/03/30 07:29:46;;;;;;;19.00;9.20;;;;;;;7.89;68.69;99267.16;106333;1286;60363;-74
2023/03/30 07:32:34;;;;;;;14.90;8.60;;;;;;;8.07;68.17;99261.98;106347;1286;73046;-71
2023/03/30 07:35:20;;;;;;;16.00;9.20;;;;;;;8.33;67.74;99254.96;106416;1286;67920;-70
2023/03/30 07:38:07;;;;;;;17.60;9.00;;;;;;;8.77;66.74;99251.58;106195;1286;250135;-71
2023/03/30 07:40:59;;;;;;;20.90;10.70;;;;;;;9.16;65.68;99236.45;106254;1286;57736;-71
2023/03/30 07:43:46;;;;;;;17.90;9.60;;;;;;;9.72;64.69;99246.36;105665;1286;1002945;-70
2023/03/30 07:46:33;;;;;;;18.00;10.80;;;;;;;10.32;62.99;99244.09;106397;1286;71879;-72
2023/03/30 07:49:20;;;;;;;20.80;10.20;;;;;;;11.05;60.73;99245.67;106420;1286;68018;-70
2023/03/30 07:52:08;;;;;;;22.20;9.70;;;;;;;11.92;58.00;99244.11;106468;1286;73052;-70
2023/03/30 07:55:03;;;;;;;17.10;9.80;;;;;;;12.89;54.58;99240.86;106430;1291;58055;-70
2023/03/30 07:58:00;;;;;;;16.90;9.30;;;;;;;13.32;51.56;99237.92;106449;1289;58758;-70
2023/03/30 08:00:47;;;;;;;19.90;10.20;;;;;;;13.18;50.93;99237.55;106473;1287;72972;-72
2023/03/30 08:03:55;;;;;;;20.20;11.40;;;;;;;12.96;50.73;99221.86;106489;1287;68077;-72
2023/03/30 08:06:42;;;;;;;19.40;10.90;;;;;;;12.92;51.08;99237.39;106371;1286;72665;-70
2023/03/30 08:09:32;;;;;;;18.00;9.40;;;;;;;13.13;50.48;99230.40;106379;1286;58140;-73
2023/03/30 08:12:21;;;;;;;16.00;9.90;;;;;;;13.20;49.53;99234.95;106430;1287;61594;-69
2023/03/30 08:15:09;;;;;;;17.70;10.20;;;;;;;13.24;49.25;99228.11;106707;1286;70672;-71
2023/03/30 08:17:56;;;;;;;15.70;9.00;;;;;;;13.28;49.36;99224.65;106593;1286;68022;-72
2023/03/30 08:20:42;;;;;;;;;;;;;;;13.36;49.19;99219.23;106273;1286;72681;-73
2023/03/30 08:23:29;;;;;;;18.70;9.50;;;;;;;13.36;49.15;99217.45;106360;1286;58144;-70
2023/03/30 08:26:16;;;;;;;15.00;8.90;;;;;;;13.51;49.17;99216.46;106331;1286;58981;-72
2023/03/30 08:29:03;;;;;;;16.20;9.90;;;;;;;13.36;48.67;99216.44;106390;1286;72024;-72
2023/03/30 08:31:53;;;;;;;19.90;10.60;;;;;;;12.80;49.65;99218.20;106329;1286;67837;-70
2023/03/30 08:34:40;;;;;;;17.60;10.00;;;;;;;12.44;50.84;99210.77;106425;1286;72620;-72
2023/03/30 08:37:27;;;;;;;16.10;9.90;;;;;;;12.24;51.69;99207.23;106302;1286;58325;-71
2023/03/30 08:40:16;;;;;;;16.10;9.50;;;;;;;12.23;51.93;99198.34;106391;1286;59446;-73
2023/03/30 08:43:44;;;;;;;17.60;10.90;;;;;;;12.18;52.28;99191.61;106380;1286;72102;-70
2023/03/30 08:46:31;;;;;;;18.00;10.40;;;;;;;12.21;52.74;99187.27;106335;1286;67843;-72
2023/03/30 08:49:20;;;;;;;20.80;10.70;;;;;;;12.07;52.69;99191.69;106596;1286;71377;-71
2023/03/30 08:52:20;;;;;;;19.80;11.50;;;;;;;12.19;52.62;99187.45;106377;1286;57565;-72
2023/03/30 08:55:43;;;;;;;19.70;10.60;;;;;;;12.45;51.83;99180.16;106290;1295;58754;-71
2023/03/30 08:58:53;;;;;;;19.30;11.40;;;;;;;12.39;51.76;99175.17;106576;1286;71942;-74
2023/03/30 09:02:02;;;;;;;18.90;12.10;;;;;;;12.42;51.86;99178.58;106502;1288;68370;-76
2023/03/30 09:04:56;;;;;;;18.60;11.10;;;;;;;12.54;51.80;99172.30;106419;1286;71466;-75
2023/03/30 09:08:09;;;;;;;18.70;10.90;;;;;;;12.54;51.85;99165.86;106504;1286;58751;-76
2023/03/30 09:11:01;;;;;;;18.90;11.10;;;;;;;12.89;51.94;99161.95;106373;1286;58862;-77
2023/03/30 09:13:49;;;;;;;17.60;11.90;;;;;;;13.46;50.19;99158.70;106438;1286;72284;-73
2023/03/30 09:16:48;;;;;;;19.60;12.00;;;;;;;13.86;48.84;99155.38;106446;1286;67697;-74
2023/03/30 09:20:19;;;;;;;20.50;11.80;;;;;;;14.38;47.55;99154.18;106416;1286;71375;-76
2023/03/30 09:23:15;;;;;;;19.20;11.30;;;;;;;14.62;46.54;99151.75;106438;1286;57533;-75
2023/03/30 09:26:40;;;;;;;21.10;12.30;;;;;;;15.05;45.61;99140.06;106511;1286;60445;-73
2023/03/30 09:29:33;;;;;;;17.40;11.30;;;;;;;15.51;44.51;99133.60;106577;1286;71869;-72
2023/03/30 09:32:36;;;;;;;18.80;10.80;;;;;;;15.56;44.07;99133.41;106415;1286;68805;-71
2023/03/30 09:35:34;;;;;;;17.50;11.40;;;;;;;15.97;43.39;99119.80;106510;1286;71694;-74
2023/03/30 09:38:23;;;;;;;15.90;10.80;;;;;;;16.70;42.07;99109.47;106471;1286;57894;-70
2023/03/30 09:41:52;;;;;;;15.60;10.50;;;;;;;17.00;41.55;99105.91;106501;1286;61445;-70
2023/03/30 09:44:55;;;;;;;16.10;9.20;;;;;;;17.43;40.72;99099.54;106381;1286;71900;-73
2023/03/30 09:47:42;;;;;;;15.70;11.10;;;;;;;17.50;40.42;99092.02;106401;1289;66758;-72
2023/03/30 09:50:29;;;;;;;15.40;8.80;;;;;;;17.55;40.01;99093.23;106445;1286;72823;-71
2023/03/30 09:53:28;;;;;;;13.80;9.00;;;;;;;18.01;39.05;99079.11;106360;1286;58426;-73
2023/03/30 09:56:45;;;;;;;15.30;10.10;;;;;;;18.74;38.28;99077.77;106473;1286;58913;-72
2023/03/30 09:59:36;;;;;;;18.30;10.80;;;;;;;19.47;36.23;99072.87;106438;1286;73257;-72
2023/03/30 10:02:29;;;;;;;16.70;9.90;;;;;;;19.82;35.75;99056.40;106643;1286;67097;-81
2023/03/30 10:05:17;;;;;;;14.20;8.70;;;;;;;20.64;34.27;99058.08;106446;1286;72854;-79
2023/03/30 10:08:20;;;;;;;14.70;7.80;;;;;;;21.13;34.04;99044.48;106477;1286;57935;-78
2023/03/30 10:11:11;;;;;;;17.00;10.30;;;;;;;21.46;33.47;99034.03;106569;1286;60620;-77
2023/03/30 10:13:59;;;;;;;14.20;9.30;;;;;;;20.70;33.56;99034.54;106477;1287;71847;-79
2023/03/30 10:16:47;;;;;;;12.90;8.50;;;;;;;19.64;34.97;99027.25;106494;1286;66865;-81
2023/03/30 10:19:35;;;;;;;12.40;8.10;;;;;;;18.47;36.76;99037.92;106559;1286;71264;-78
2023/03/30 10:22:25;;;;;;;15.40;8.80;;;;;;;17.40;38.69;99033.52;106607;1286;57044;-80
2023/03/30 10:25:26;;;;;;;15.00;9.90;;;;;;;17.08;39.98;99030.11;106619;1286;60150;-80
2023/03/30 10:28:25;;;;;;;16.80;10.20;;;;;;;16.98;40.00;99029.18;106708;1286;72269;-78
2023/03/30 10:31:16;;;;;;;16.60;10.70;;;;;;;16.64;40.66;99027.45;106654;1286;66773;-82
2023/03/30 10:34:32;;;;;;;16.90;9.80;;;;;;;16.12;41.74;99020.02;106508;1286;71445;-71
2023/03/30 10:37:33;;;;;;;18.20;10.00;;;;;;;16.09;42.05;99018.19;106420;1286;58239;-70
2023/03/30 10:40:42;;;;;;;14.70;7.50;;;;;;;16.16;42.07;99015.48;106546;1288;60161;-72
2023/03/30 10:43:32;;;;;;;14.70;8.20;;;;;;;15.83;42.53;99005.84;106012;1294;73051;-72
2023/03/30 10:46:22;;;;;;;14.50;8.40;;;;;;;15.37;43.37;99012.14;105813;1294;68103;-70
2023/03/30 10:49:25;;;;;;;17.40;9.20;;;;;;;15.65;43.22;99011.98;105946;1294;72922;-73
2023/03/30 10:52:53;;;;;;;17.30;9.30;;;;;;;15.85;42.77;99013.02;105850;1294;57403;-70
2023/03/30 10:56:21;;;;;;;14.40;8.00;;;;;;;15.33;43.78;99017.80;105940;1293;60560;-72
2023/03/30 10:59:32;;;;;;;13.90;7.90;;;;;;;14.83;45.12;99015.43;105911;1294;73006;-70
2023/03/30 11:02:52;;;;;;;13.50;7.60;;;;;;;14.56;45.56;99014.40;105972;1294;68028;-72
2023/03/30 11:05:43;;;;;;;12.90;6.90;;;;;;;14.54;45.92;99009.98;105907;1294;72574;-74
2023/03/30 11:08:41;;;;;;;12.80;7.00;;;;;;;14.57;46.02;99015.91;105883;1294;57480;-72
2023/03/30 11:11:45;;;;;;;14.50;7.80;;;;;;;14.24;46.42;99025.25;105885;1294;59928;-69
2023/03/30 11:15:03;;;;;;;16.90;9.20;;;;;;;13.81;47.43;99017.95;105960;1294;73167;-72
2023/03/30 11:18:07;;;;;;;18.00;9.70;;;;;;;13.53;48.29;99005.64;105907;1294;67828;-72
2023/03/30 11:21:04;;;;;;;17.70;9.40;;;;;;;13.47;48.56;99003.43;106168;1286;72886;-69
2023/03/30 11:24:06;;;;;;;17.20;10.00;;;;;;;13.61;48.52;98987.83;106805;1286;58829;-71
2023/03/30 11:27:23;;;;;;;17.30;10.00;;;;;;;13.85;48.38;98975.40;106737;1289;58881;-69
2023/03/30 11:30:32;;;;;;;15.50;8.70;;;;;;;14.20;48.25;98966.09;106675;1286;73793;-72
2023/03/30 11:33:50;;;;;;;15.80;8.40;;;;;;;14.61;47.35;98954.64;106675;1286;66477;-70
2023/03/30 11:36:56;;;;;;;15.20;8.80;;;;;;;14.72;46.42;98958.33;106428;1286;71206;-70
2023/03/30 11:39:54;;;;;;;14.80;9.00;;;;;;;14.56;46.22;98955.37;106414;1286;58180;-70
2023/03/30 11:42:42;;;;;;;15.00;8.70;;;;;;;14.49;46.52;98949.02;106264;1286;58855;-71
2023/03/30 11:45:43;;;;;;;14.60;9.20;;;;;;;14.39;46.60;98951.50;106367;1286;71754;-73
2023/03/30 11:48:45;;;;;;;15.50;8.90;;;;;;;14.47;46.54;98944.19;106407;1290;66524;-70
2023/03/30 11:52:04;;;;;;;15.60;9.50;;;;;;;14.69;46.53;98932.00;106367;1286;72697;-72
2023/03/30 11:55:16;;;;;;;14.70;8.00;;;;;;;14.89;45.72;98930.46;106351;1286;57405;-76
2023/03/30 11:58:24;;;;;;;14.10;7.40;;;;;;;14.61;45.84;98924.30;106367;1286;58643;-71
2023/03/30 12:01:49;;;;;;;14.80;7.80;;;;;;;14.36;46.51;98917.25;106585;1286;73055;-72
2023/03/30 12:04:49;;;;;;;14.60;8.10;;;;;;;14.15;46.86;98918.09;106243;1286;68098;-72
2023/03/30 12:08:27;;;;;;;16.10;7.80;;;;;;;14.07;47.57;98911.36;106367;1286;71309;-74
2023/03/30 12:11:35;;;;;;;14.80;8.00;;;;;;;13.94;47.86;98906.77;106406;1286;57385;-71
2023/03/30 12:14:44;;;;;;;14.10;8.40;;;;;;;13.83;48.05;98904.13;106513;1286;61489;-72
2023/03/30 12:17:59;;;;;;;14.00;8.70;;;;;;;13.49;48.20;98901.03;106504;1286;72992;-69
2023/03/30 12:21:03;;;;;;;18.20;8.90;;;;;;;13.25;49.13;98902.58;106423;1286;67516;-73
2023/03/30 12:24:29;;;;;;;13.40;7.00;;;;;;;13.08;49.62;98900.10;106553;1288;72474;-72
2023/03/30 12:27:15;;;;;;;14.80;8.00;;;;;;;12.91;50.39;98903.99;105915;1293;57464;-71
2023/03/30 12:30:22;;;;;;;;;;;;;;;12.77;50.83;98907.99;105917;1293;58847;-72
2023/03/30 12:33:27;;;;;;;15.80;9.00;;;;;;;12.69;51.30;98899.77;105880;1293;73029;-74
2023/03/30 12:36:39;;;;;;;12.20;6.70;;;;;;;12.68;51.73;98893.67;105863;1294;68062;-70
2023/03/30 12:40:19;;;;;;;13.60;8.10;;;;;;;12.65;52.06;98885.27;105878;1294;72662;-72
2023/03/30 12:43:36;;;;;;;16.20;9.60;;;;;;;12.56;52.43;98894.19;105868;1294;57473;-71
2023/03/30 12:46:34;;;;;;;18.40;9.90;;;;;;;12.38;53.21;98894.42;105564;1298;59622;-74
2023/03/30 12:49:58;;;;;;;15.90;9.40;;;;;;;12.24;53.95;98878.58;105621;1299;71595;-73
2023/03/30 12:53:35;;;;;;;20.90;12.00;;;;;;;12.26;54.31;98871.11;105555;1297;67945;-72
2023/03/30 12:57:31;;;;;;;17.10;10.30;;;;;;;12.24;55.12;98865.61;105539;1297;71727;-70
2023/03/30 13:01:00;;;;;;;21.40;12.10;;;;;;;12.29;55.37;98852.69;105010;1304;57860;-72
2023/03/30 13:03:54;;;;;;;17.70;10.20;;;;;;;12.34;55.65;98844.54;105094;1299;59158;-74
2023/03/30 13:07:12;;;;;;;19.60;11.80;;;;;;;12.33;55.40;98842.00;105536;1299;72450;-73
2023/03/30 13:10:03;;;;;;;21.10;12.50;;;;;;;12.27;55.71;98834.05;105533;1299;66795;-70
2023/03/30 13:12:55;;;;;;;16.20;10.20;;;;;;;12.20;56.16;98829.92;105444;1299;72665;-76
2023/03/30 13:15:51;;;;;;;19.80;12.30;;;;;;;12.09;56.96;98836.27;104785;1298;1002428;-72
2023/03/30 13:18:47;;;;;;;21.00;12.70;;;;;;;11.97;57.54;98827.39;105811;1294;60324;-74
2023/03/30 13:21:53;;;;;;;21.50;13.70;;;;;;;11.83;58.14;98827.10;105863;1294;72991;-73
2023/03/30 13:24:58;;;;;;;17.60;11.20;;;;;;;11.76;59.15;98821.65;105786;1294;66734;-73
2023/03/30 13:27:45;;;;;;;21.70;14.00;;;;;;;11.73;60.40;98821.07;105816;1294;71738;-72
2023/03/30 13:30:33;;;;;;;21.90;14.50;;;;;;;11.67;61.75;98809.73;105846;1294;58242;-74
2023/03/30 13:33:22;;;;;;;20.90;12.70;;;;;;;11.67;62.62;98796.64;105858;1294;61629;-73
2023/03/30 13:36:17;;;;;;;19.10;11.50;;;;;;;11.73;62.31;98791.58;106382;1286;72845;-75
2023/03/30 13:40:07;;;;;;;22.00;13.70;;;;;;;11.81;63.58;98788.41;106415;1287;67934;-72
2023/03/30 13:43:21;;;;;;;22.60;13.30;;;;;;;11.90;63.48;98795.87;106428;1286;72599;-71
2023/03/30 13:46:40;;;;;;;23.60;13.80;;;;;;;11.76;63.83;98793.23;106531;1286;57596;-70